Time;durP1;ratioP1;P1;durP2;ratioP2;P2;SDS_P1;SDS_P2;PMS_P1;PMS_P2;Temp;Humidity;BMP_temperature;BMP_pressure;BME280_temperature;BME280_humidity;BME280_pressure;Samples;Min_cycle;Max_cycle;Signal;HPM_P1;HPM_P2
2024/01/12 00:01:08;;;;;;;;;40.33;38.00;;;;;;;;5070698;28;8817;-80
2024/01/12 00:03:36;;;;;;;;;29.33;29.33;;;;;;;;5072422;28;8861;-81
2024/01/12 00:06:04;;;;;;;;;41.67;34.33;;;;;;;;5061219;28;11677;-80
2024/01/12 00:08:32;;;;;;;;;46.33;40.67;;;;;;;;5053181;28;11589;-80
2024/01/12 00:10:59;;;;;;;;;37.67;33.00;;;;;;;;5071289;28;8964;-80
2024/01/12 00:13:27;;;;;;;;;44.33;40.00;;;;;;;;5072626;28;11722;-80
2024/01/12 00:15:55;;;;;;;;;37.67;31.33;;;;;;;;5071665;28;11575;-80
2024/01/12 00:18:22;;;;;;;;;37.00;34.33;;;;;;;;5074362;28;11590;-80
2024/01/12 00:20:50;;;;;;;;;38.33;38.33;;;;;;;;5060939;28;8866;-81
2024/01/12 00:23:17;;;;;;;;;43.00;39.33;;;;;;;;5068098;28;11594;-80
2024/01/12 00:25:44;;;;;;;;;31.33;29.33;;;;;;;;5074962;28;8854;-80
2024/01/12 00:28:12;;;;;;;;;25.67;24.00;;;;;;;;5071223;28;11708;-81
2024/01/12 00:30:38;;;;;;;;;39.33;34.67;;;;;;;;5070118;28;11621;-81
2024/01/12 00:33:12;;;;;;;;;34.67;32.00;;;;;;;;5070483;28;11704;-81
2024/01/12 00:35:39;;;;;;;;;43.33;36.00;;;;;;;;5061912;28;12349;-81
2024/01/12 00:38:06;;;;;;;;;36.00;34.67;;;;;;;;5054428;28;11588;-80
2024/01/12 00:40:33;;;;;;;;;42.00;37.33;;;;;;;;5071023;28;8962;-80
2024/01/12 00:43:01;;;;;;;;;33.67;33.33;;;;;;;;5070069;28;8973;-80
2024/01/12 00:45:28;;;;;;;;;39.33;35.00;;;;;;;;5070667;28;11713;-82
2024/01/12 00:47:55;;;;;;;;;41.33;39.00;;;;;;;;5068802;28;12313;-81
2024/01/12 00:50:24;;;;;;;;;44.33;39.00;;;;;;;;5070465;28;9531;-80
2024/01/12 00:52:51;;;;;;;;;50.67;42.33;;;;;;;;5069692;28;8993;-81
2024/01/12 00:55:19;;;;;;;;;54.00;42.33;;;;;;;;5071000;28;8896;-81
2024/01/12 00:57:46;;;;;;;;;44.33;33.67;;;;;;;;5070993;28;11658;-81
2024/01/12 01:00:15;;;;;;;;;56.67;45.33;;;;;;;;5072061;28;8869;-80
2024/01/12 01:02:42;;;;;;;;;48.67;43.33;;;;;;;;5073716;28;8862;-81
2024/01/12 01:05:12;;;;;;;;;42.67;38.00;;;;;;;;5072365;28;8869;-81
2024/01/12 01:07:40;;;;;;;;;59.00;46.67;;;;;;;;5070290;28;8877;-81
2024/01/12 01:10:08;;;;;;;;;45.33;41.00;;;;;;;;5070275;28;8866;-81
2024/01/12 01:12:36;;;;;;;;;50.33;41.33;;;;;;;;5069947;28;8843;-82
2024/01/12 01:15:06;;;;;;;;;45.00;42.33;;;;;;;;5070465;28;8898;-81
2024/01/12 01:17:33;;;;;;;;;52.67;45.33;;;;;;;;5070673;28;8886;-81
2024/01/12 01:20:01;;;;;;;;;47.67;42.00;;;;;;;;5071400;28;8846;-81
2024/01/12 01:22:31;;;;;;;;;38.33;38.33;;;;;;;;5070902;28;8851;-78
2024/01/12 01:25:01;;;;;;;;;41.33;39.33;;;;;;;;5081195;28;8882;-80
2024/01/12 01:27:28;;;;;;;;;46.00;42.00;;;;;;;;5071847;28;8956;-81
2024/01/12 01:29:56;;;;;;;;;46.00;41.67;;;;;;;;5070274;28;8851;-80
2024/01/12 01:32:23;;;;;;;;;51.00;44.33;;;;;;;;5069717;28;8835;-79
2024/01/12 01:34:50;;;;;;;;;52.67;44.00;;;;;;;;5067970;28;8965;-80
2024/01/12 01:37:18;;;;;;;;;50.67;41.33;;;;;;;;5059022;28;8977;-80
2024/01/12 01:39:45;;;;;;;;;47.00;41.33;;;;;;;;5069496;28;8885;-80
2024/01/12 01:42:13;;;;;;;;;40.33;38.00;;;;;;;;5069675;28;8871;-80
2024/01/12 01:44:41;;;;;;;;;49.33;44.00;;;;;;;;5069453;28;8954;-80
2024/01/12 01:47:08;;;;;;;;;48.33;40.33;;;;;;;;5069874;28;8939;-80
2024/01/12 01:49:35;;;;;;;;;57.33;43.67;;;;;;;;5069556;28;8862;-80
2024/01/12 01:52:04;;;;;;;;;54.67;44.33;;;;;;;;5070152;28;8870;-79
2024/01/12 01:54:33;;;;;;;;;56.00;45.67;;;;;;;;5067186;28;8859;-81
2024/01/12 01:57:03;;;;;;;;;52.00;44.67;;;;;;;;5071626;28;8888;-81
2024/01/12 01:59:32;;;;;;;;;62.67;51.00;;;;;;;;5074058;28;8969;-80
2024/01/12 02:02:00;;;;;;;;;57.00;46.00;;;;;;;;5075626;28;8825;-80
2024/01/12 02:04:27;;;;;;;;;51.00;43.00;;;;;;;;5065298;28;8851;-80
2024/01/12 02:06:54;;;;;;;;;49.00;42.33;;;;;;;;5064980;28;9043;-79
2024/01/12 02:09:22;;;;;;;;;50.33;42.67;;;;;;;;5070179;28;8850;-81
2024/01/12 02:11:50;;;;;;;;;52.33;42.33;;;;;;;;5062210;28;8857;-79
2024/01/12 02:14:17;;;;;;;;;54.00;44.00;;;;;;;;5065799;28;11596;-81
2024/01/12 02:16:46;;;;;;;;;47.33;43.67;;;;;;;;5058190;28;8891;-81
2024/01/12 02:19:14;;;;;;;;;56.00;45.00;;;;;;;;5068430;28;8858;-81
2024/01/12 02:21:43;;;;;;;;;46.00;41.33;;;;;;;;5068855;28;8862;-81
2024/01/12 02:24:10;;;;;;;;;82.00;60.67;;;;;;;;5068387;28;8846;-81
2024/01/12 02:26:37;;;;;;;;;80.00;63.00;;;;;;;;5068684;28;8831;-80
2024/01/12 02:29:05;;;;;;;;;85.67;63.00;;;;;;;;5058763;28;8883;-81
2024/01/12 02:31:32;;;;;;;;;66.33;54.33;;;;;;;;5067844;28;8825;-80
2024/01/12 02:34:00;;;;;;;;;48.33;42.33;;;;;;;;5068325;28;8936;-81
2024/01/12 02:36:27;;;;;;;;;52.00;45.33;;;;;;;;5068446;28;8972;-81
2024/01/12 02:38:56;;;;;;;;;50.33;43.67;;;;;;;;5067134;28;8871;-81
2024/01/12 02:41:23;;;;;;;;;63.00;51.00;;;;;;;;5069679;28;8916;-81
2024/01/12 02:43:51;;;;;;;;;65.00;49.33;;;;;;;;5071494;28;8873;-81
2024/01/12 02:46:19;;;;;;;;;54.67;45.67;;;;;;;;5071875;28;8858;-81
2024/01/12 02:48:46;;;;;;;;;65.33;51.00;;;;;;;;5071015;28;8893;-80
2024/01/12 02:51:13;;;;;;;;;71.00;51.67;;;;;;;;5067842;28;8846;-80
2024/01/12 02:53:42;;;;;;;;;54.67;44.67;;;;;;;;5066221;28;9638;-80
2024/01/12 02:56:11;;;;;;;;;69.33;51.00;;;;;;;;5068442;28;8854;-81
2024/01/12 02:58:39;;;;;;;;;71.67;51.67;;;;;;;;5068734;28;8846;-79
2024/01/12 03:01:06;;;;;;;;;48.00;43.67;;;;;;;;5067434;28;8887;-80
2024/01/12 03:03:34;;;;;;;;;57.33;46.67;;;;;;;;5068327;28;11595;-80
2024/01/12 03:06:05;;;;;;;;;51.67;42.00;;;;;;;;5069142;28;8889;-80
2024/01/12 03:08:32;;;;;;;;;69.33;53.33;;;;;;;;5066821;28;8859;-81
2024/01/12 03:11:00;;;;;;;;;63.33;46.33;;;;;;;;5067666;28;8873;-81
2024/01/12 03:13:29;;;;;;;;;60.00;46.67;;;;;;;;5058267;28;8850;-81
2024/01/12 03:15:56;;;;;;;;;51.67;46.33;;;;;;;;5063405;28;8846;-80
2024/01/12 03:18:26;;;;;;;;;69.67;53.67;;;;;;;;5068018;28;8863;-81
2024/01/12 03:20:53;;;;;;;;;55.67;47.00;;;;;;;;5066934;28;8847;-81
2024/01/12 03:23:20;;;;;;;;;59.00;47.00;;;;;;;;5067938;28;8851;-80
2024/01/12 03:25:48;;;;;;;;;60.00;44.33;;;;;;;;5067487;28;9693;-80
2024/01/12 03:28:15;;;;;;;;;55.33;46.67;;;;;;;;5067867;28;8891;-80
2024/01/12 03:30:44;;;;;;;;;52.33;42.00;;;;;;;;5065842;28;11618;-81
2024/01/12 03:33:11;;;;;;;;;58.00;44.33;;;;;;;;5066986;28;8865;-80
2024/01/12 03:35:39;;;;;;;;;62.67;46.67;;;;;;;;5067565;28;8877;-81
2024/01/12 03:38:07;;;;;;;;;57.00;44.67;;;;;;;;5068422;28;8913;-80
2024/01/12 03:40:34;;;;;;;;;57.00;43.00;;;;;;;;5068183;28;11568;-81
2024/01/12 03:43:01;;;;;;;;;58.67;48.00;;;;;;;;5071244;28;11725;-80
2024/01/12 03:45:29;;;;;;;;;54.67;44.67;;;;;;;;5071319;28;11566;-80
2024/01/12 03:47:58;;;;;;;;;52.00;42.33;;;;;;;;5059752;28;11655;-81
2024/01/12 03:50:25;;;;;;;;;54.00;43.33;;;;;;;;5070072;28;11630;-81
2024/01/12 03:52:52;;;;;;;;;44.00;39.67;;;;;;;;5071358;28;11567;-80
2024/01/12 03:55:19;;;;;;;;;61.67;46.33;;;;;;;;5068352;28;11739;-81
2024/01/12 03:57:47;;;;;;;;;58.00;49.00;;;;;;;;5067870;28;11691;-80
2024/01/12 04:00:15;;;;;;;;;56.67;48.33;;;;;;;;5066811;28;8863;-81
2024/01/12 04:02:43;;;;;;;;;60.33;48.00;;;;;;;;5067200;28;8859;-81
2024/01/12 04:05:13;;;;;;;;;56.67;42.67;;;;;;;;5068049;28;8865;-81
2024/01/12 04:07:41;;;;;;;;;50.33;42.00;;;;;;;;5067742;28;8847;-81
2024/01/12 04:10:08;;;;;;;;;59.67;47.33;;;;;;;;5060340;28;11687;-81
2024/01/12 04:12:39;;;;;;;;;51.75;43.00;;;;;;;;5057684;28;11726;-81
2024/01/12 04:15:08;;;;;;;;;57.33;45.33;;;;;;;;5059719;28;11622;-81
2024/01/12 04:17:36;;;;;;;;;62.33;47.67;;;;;;;;5068860;28;11599;-81
2024/01/12 04:20:03;;;;;;;;;60.00;47.33;;;;;;;;5074776;28;11588;-78
2024/01/12 04:22:32;;;;;;;;;55.67;47.33;;;;;;;;5085410;28;11711;-79
2024/01/12 04:24:59;;;;;;;;;43.67;39.33;;;;;;;;5079216;28;11608;-80
2024/01/12 04:27:28;;;;;;;;;58.00;40.67;;;;;;;;5073558;28;12511;-82
2024/01/12 04:29:55;;;;;;;;;46.50;39.75;;;;;;;;5072789;28;11707;-81
2024/01/12 04:32:22;;;;;;;;;56.67;44.67;;;;;;;;5072280;28;11606;-81
2024/01/12 04:34:50;;;;;;;;;60.33;49.33;;;;;;;;5068732;28;11576;-81
2024/01/12 04:37:17;;;;;;;;;53.33;46.33;;;;;;;;5059732;28;8863;-81
2024/01/12 04:39:45;;;;;;;;;56.00;47.67;;;;;;;;5070457;28;11719;-80
2024/01/12 04:42:14;;;;;;;;;53.00;43.67;;;;;;;;5068839;28;11573;-81
2024/01/12 04:44:43;;;;;;;;;60.33;47.67;;;;;;;;5068656;28;11740;-82
2024/01/12 04:47:10;;;;;;;;;61.67;46.00;;;;;;;;5066567;28;11615;-80
2024/01/12 04:49:38;;;;;;;;;59.33;45.33;;;;;;;;5067004;28;8899;-81
2024/01/12 04:52:06;;;;;;;;;60.75;47.00;;;;;;;;5069737;28;11591;-80
2024/01/12 04:54:33;;;;;;;;;68.67;50.67;;;;;;;;5078537;28;11564;-79
2024/01/12 04:57:02;;;;;;;;;64.00;50.33;;;;;;;;5070435;28;11720;-81
2024/01/12 04:59:29;;;;;;;;;55.00;46.67;;;;;;;;5069659;28;8970;-80
2024/01/12 05:01:56;;;;;;;;;61.00;46.00;;;;;;;;5069582;28;11492;-81
2024/01/12 05:04:23;;;;;;;;;57.67;47.33;;;;;;;;5069355;28;8846;-80
2024/01/12 05:06:51;;;;;;;;;53.33;45.33;;;;;;;;5070174;28;11580;-81
2024/01/12 05:09:18;;;;;;;;;66.33;50.67;;;;;;;;5066968;28;11583;-80
2024/01/12 05:11:45;;;;;;;;;50.00;42.33;;;;;;;;5070144;28;9000;-81
2024/01/12 05:14:17;;;;;;;;;54.00;43.67;;;;;;;;5070214;28;11547;-80
2024/01/12 05:16:44;;;;;;;;;58.67;48.00;;;;;;;;5069639;28;11571;-81
2024/01/12 05:19:11;;;;;;;;;64.67;49.67;;;;;;;;5069610;28;11592;-80
2024/01/12 05:21:39;;;;;;;;;64.33;50.67;;;;;;;;5068403;28;11568;-81
2024/01/12 05:24:06;;;;;;;;;62.33;50.33;;;;;;;;5071042;28;11676;-81
2024/01/12 05:26:34;;;;;;;;;60.67;47.33;;;;;;;;5070551;28;11716;-80
2024/01/12 05:29:02;;;;;;;;;65.00;51.33;;;;;;;;5072455;28;11608;-81
2024/01/12 05:31:30;;;;;;;;;58.33;48.67;;;;;;;;5072775;28;11513;-80
2024/01/12 05:33:58;;;;;;;;;66.00;53.00;;;;;;;;5071161;28;8889;-80
2024/01/12 05:36:27;;;;;;;;;67.33;55.00;;;;;;;;5069894;28;8992;-80
2024/01/12 05:38:54;;;;;;;;;63.00;51.67;;;;;;;;5062301;28;8850;-81
2024/01/12 05:41:22;;;;;;;;;63.00;51.67;;;;;;;;5071764;28;8842;-81
2024/01/12 05:43:49;;;;;;;;;64.67;51.67;;;;;;;;5067974;28;8884;-80
2024/01/12 05:46:17;;;;;;;;;53.33;43.00;;;;;;;;5069304;28;8843;-81
2024/01/12 05:48:47;;;;;;;;;57.33;45.67;;;;;;;;5063898;28;11669;-80
2024/01/12 05:51:14;;;;;;;;;65.00;53.00;;;;;;;;5063806;28;11561;-81
2024/01/12 05:53:45;;;;;;;;;67.67;55.00;;;;;;;;5066622;28;8846;-81
2024/01/12 05:56:12;;;;;;;;;64.67;51.33;;;;;;;;5066215;28;11695;-80
2024/01/12 05:58:42;;;;;;;;;67.67;52.67;;;;;;;;5069176;28;8867;-81
2024/01/12 06:01:10;;;;;;;;;79.00;61.67;;;;;;;;5063147;28;8901;-81
2024/01/12 06:03:46;;;;;;;;;77.67;60.00;;;;;;;;5067503;28;8873;-81
2024/01/12 06:06:15;;;;;;;;;76.00;58.00;;;;;;;;5068756;28;8857;-76
2024/01/12 06:08:42;;;;;;;;;68.00;53.00;;;;;;;;5065823;28;8829;-80
2024/01/12 06:11:10;;;;;;;;;63.00;52.33;;;;;;;;5069316;28;9475;-81
2024/01/12 06:13:37;;;;;;;;;62.33;52.00;;;;;;;;5059345;28;11576;-79
2024/01/12 06:16:04;;;;;;;;;66.67;55.00;;;;;;;;5061541;28;8874;-78
2024/01/12 06:18:32;;;;;;;;;67.67;50.33;;;;;;;;5067130;28;8911;-79
2024/01/12 06:20:59;;;;;;;;;59.67;49.00;;;;;;;;5057245;28;8869;-82
2024/01/12 06:23:27;;;;;;;;;64.33;53.00;;;;;;;;5061734;28;8854;-79
2024/01/12 06:25:55;;;;;;;;;58.67;48.33;;;;;;;;5068074;28;8881;-79
2024/01/12 06:28:24;;;;;;;;;60.67;49.00;;;;;;;;5065826;28;11699;-79
2024/01/12 06:30:53;;;;;;;;;60.67;50.33;;;;;;;;5067048;28;11490;-79
2024/01/12 06:33:23;;;;;;;;;66.67;52.00;;;;;;;;5067890;28;8869;-78
2024/01/12 06:35:50;;;;;;;;;65.00;46.67;;;;;;;;5067948;28;11626;-79
2024/01/12 06:38:17;;;;;;;;;65.33;52.00;;;;;;;;5067647;28;8843;-79
2024/01/12 06:40:46;;;;;;;;;69.33;57.00;;;;;;;;5067255;28;8866;-77
2024/01/12 06:43:13;;;;;;;;;68.00;53.00;;;;;;;;5067973;28;8839;-79
2024/01/12 06:45:40;;;;;;;;;71.67;59.00;;;;;;;;5067533;28;8989;-78
2024/01/12 06:48:07;;;;;;;;;63.33;49.00;;;;;;;;5067571;28;8843;-78
2024/01/12 06:50:35;;;;;;;;;71.00;56.33;;;;;;;;5067905;28;8878;-79
2024/01/12 06:53:04;;;;;;;;;63.00;49.00;;;;;;;;5067480;28;8851;-79
2024/01/12 06:55:31;;;;;;;;;57.33;45.67;;;;;;;;5068007;28;8877;-79
2024/01/12 06:57:59;;;;;;;;;54.00;45.25;;;;;;;;5064184;28;11573;-80
2024/01/12 07:00:36;;;;;;;;;52.50;43.25;;;;;;;;5067181;28;11493;-79
2024/01/12 07:03:03;;;;;;;;;62.50;45.75;;;;;;;;5065609;28;11597;-78
2024/01/12 07:05:30;;;;;;;;;50.50;39.25;;;;;;;;5067417;28;11602;-77
2024/01/12 07:07:57;;;;;;;;;31.25;31.25;;;;;;;;5067993;28;11705;-78
2024/01/12 07:10:27;;;;;;;;;38.25;33.75;;;;;;;;5067304;28;11700;-76
2024/01/12 07:12:55;;;;;;;;;58.75;48.25;;;;;;;;5064940;28;11571;-78
2024/01/12 07:15:26;;;;;;;;;35.50;33.00;;;;;;;;5070166;28;11596;-79
2024/01/12 07:17:53;;;;;;;;;48.75;38.25;;;;;;;;5069271;28;11574;-79
2024/01/12 07:20:20;;;;;;;;;40.75;35.25;;;;;;;;5070999;28;11550;-75
2024/01/12 07:22:47;;;;;;;;;52.00;44.00;;;;;;;;5065233;28;11579;-76
2024/01/12 07:25:15;;;;;;;;;44.50;32.75;;;;;;;;5072665;28;11589;-75
2024/01/12 07:27:42;;;;;;;;;46.25;36.75;;;;;;;;5068945;28;11588;-79
2024/01/12 07:30:10;;;;;;;;;47.25;41.00;;;;;;;;5069735;28;11630;-79
2024/01/12 07:32:41;;;;;;;;;41.50;37.00;;;;;;;;5073849;28;11582;-76
2024/01/12 07:35:09;;;;;;;;;34.50;29.75;;;;;;;;5068365;28;11713;-78
2024/01/12 07:37:37;;;;;;;;;40.25;34.25;;;;;;;;5052247;28;11601;-78
2024/01/12 07:40:04;;;;;;;;;36.50;34.75;;;;;;;;5066740;28;12294;-77
2024/01/12 07:42:32;;;;;;;;;39.75;32.50;;;;;;;;5057249;28;11564;-76
2024/01/12 07:44:59;;;;;;;;;38.00;34.50;;;;;;;;5066917;28;12403;-76
2024/01/12 07:47:26;;;;;;;;;45.00;38.75;;;;;;;;5049935;28;13141;-77
2024/01/12 07:49:55;;;;;;;;;32.25;30.50;;;;;;;;5066380;28;11577;-77
2024/01/12 07:52:25;;;;;;;;;42.50;33.75;;;;;;;;5060631;28;11627;-77
2024/01/12 07:54:52;;;;;;;;;34.00;33.75;;;;;;;;5067837;28;11580;-77
2024/01/12 07:57:19;;;;;;;;;23.75;23.75;;;;;;;;5070558;28;11579;-75
2024/01/12 07:59:47;;;;;;;;;42.25;34.50;;;;;;;;5070517;28;11659;-76
2024/01/12 08:02:15;;;;;;;;;42.50;37.00;;;;;;;;5058984;28;11649;-77
2024/01/12 08:04:42;;;;;;;;;45.50;38.75;;;;;;;;5064716;28;11574;-77
2024/01/12 08:07:11;;;;;;;;;48.00;42.00;;;;;;;;5073893;28;11594;-76
2024/01/12 08:09:38;;;;;;;;;46.25;40.75;;;;;;;;5072123;28;11597;-79
2024/01/12 08:12:06;;;;;;;;;40.75;38.25;;;;;;;;5064495;28;11584;-79
2024/01/12 08:14:33;;;;;;;;;43.00;36.00;;;;;;;;5068693;28;11728;-78
2024/01/12 08:17:02;;;;;;;;;45.50;37.25;;;;;;;;5066342;28;11580;-78
2024/01/12 08:19:32;;;;;;;;;44.25;37.00;;;;;;;;5070024;28;11572;-77
2024/01/12 08:21:59;;;;;;;;;42.25;36.25;;;;;;;;5069321;28;11795;-78
2024/01/12 08:24:28;;;;;;;;;52.75;38.75;;;;;;;;5069218;28;11747;-78
2024/01/12 08:26:55;;;;;;;;;48.67;42.00;;;;;;;;5069908;28;11587;-79
2024/01/12 08:29:24;;;;;;;;;45.50;40.25;;;;;;;;5060811;28;11701;-79
2024/01/12 08:31:52;;;;;;;;;45.33;38.67;;;;;;;;5069403;28;11538;-77
2024/01/12 08:34:19;;;;;;;;;44.75;37.25;;;;;;;;5070107;28;11575;-78
2024/01/12 08:36:46;;;;;;;;;49.50;43.00;;;;;;;;5070226;28;11571;-77
2024/01/12 08:39:13;;;;;;;;;38.50;38.50;;;;;;;;5062665;28;11598;-77
2024/01/12 08:41:42;;;;;;;;;43.25;39.00;;;;;;;;5055132;28;11635;-78
2024/01/12 08:44:09;;;;;;;;;42.50;38.75;;;;;;;;5061343;28;11591;-84
2024/01/12 08:46:37;;;;;;;;;49.75;43.00;;;;;;;;5069423;28;11599;-78
2024/01/12 08:49:04;;;;;;;;;35.25;32.00;;;;;;;;5070061;28;11579;-78
2024/01/12 08:51:32;;;;;;;;;32.25;25.75;;;;;;;;5069246;28;11586;-78
2024/01/12 08:53:59;;;;;;;;;47.25;41.50;;;;;;;;5069815;28;11564;-80
2024/01/12 08:56:26;;;;;;;;;34.00;31.75;;;;;;;;5069358;28;11577;-79
2024/01/12 08:58:55;;;;;;;;;38.00;34.00;;;;;;;;5069598;28;11681;-78
2024/01/12 09:01:24;;;;;;;;;38.00;33.00;;;;;;;;5069177;28;11544;-80
2024/01/12 09:03:51;;;;;;;;;38.00;32.25;;;;;;;;5069311;28;11587;-78
2024/01/12 09:06:18;;;;;;;;;38.75;37.75;;;;;;;;5071524;28;11634;-78
2024/01/12 09:08:46;;;;;;;;;27.25;27.25;;;;;;;;5072935;28;11732;-83
2024/01/12 09:11:13;;;;;;;;;41.25;35.25;;;;;;;;5062286;28;11576;-84
2024/01/12 09:13:40;;;;;;;;;42.75;40.75;;;;;;;;5062230;28;11601;-78
2024/01/12 09:16:11;;;;;;;;;42.50;35.75;;;;;;;;5073463;28;11700;-78
2024/01/12 09:18:38;;;;;;;;;55.33;41.67;;;;;;;;5072485;28;11689;-77
2024/01/12 09:21:05;;;;;;;;;38.25;32.25;;;;;;;;5066180;28;11580;-78
2024/01/12 09:23:33;;;;;;;;;41.75;37.50;;;;;;;;5068694;28;11596;-78
2024/01/12 09:26:00;;;;;;;;;38.25;36.50;;;;;;;;5073145;28;11572;-73
2024/01/12 09:28:27;;;;;;;;;47.25;39.75;;;;;;;;5073810;28;12490;-75
2024/01/12 09:30:55;;;;;;;;;37.00;30.50;;;;;;;;5061518;28;11633;-79
2024/01/12 09:33:23;;;;;;;;;35.75;31.25;;;;;;;;5070338;28;11582;-79
2024/01/12 09:35:50;;;;;;;;;35.75;30.25;;;;;;;;5069287;28;11554;-78
2024/01/12 09:38:18;;;;;;;;;36.75;35.00;;;;;;;;5067137;28;11569;-79
2024/01/12 09:40:46;;;;;;;;;41.75;31.50;;;;;;;;5050825;28;11606;-79
2024/01/12 09:43:14;;;;;;;;;41.00;37.50;;;;;;;;5065968;28;12444;-77
2024/01/12 09:45:44;;;;;;;;;49.67;40.00;;;;;;;;5068572;28;11556;-79
2024/01/12 09:48:12;;;;;;;;;44.75;36.25;;;;;;;;5054692;28;11622;-78
2024/01/12 09:50:41;;;;;;;;;40.25;36.25;;;;;;;;5051175;28;11725;-79
2024/01/12 09:53:08;;;;;;;;;36.75;32.75;;;;;;;;5068756;28;11590;-78
2024/01/12 09:55:35;;;;;;;;;29.50;29.50;;;;;;;;5071139;28;11563;-78
2024/01/12 09:58:04;;;;;;;;;35.25;33.50;;;;;;;;5071808;28;11631;-76
2024/01/12 10:00:37;;;;;;;;;35.00;33.00;;;;;;;;5070482;28;11471;-77
2024/01/12 10:03:05;;;;;;;;;45.25;38.75;;;;;;;;5070459;28;11567;-77
2024/01/12 10:05:32;;;;;;;;;38.00;27.25;;;;;;;;5071890;28;12350;-75
2024/01/12 10:08:01;;;;;;;;;44.50;38.25;;;;;;;;5067669;28;11626;-79
2024/01/12 10:10:31;;;;;;;;;35.50;35.50;;;;;;;;5067589;28;11573;-76
2024/01/12 10:12:58;;;;;;;;;44.25;38.25;;;;;;;;5062148;28;12407;-74
2024/01/12 10:15:26;;;;;;;;;41.75;40.25;;;;;;;;5061389;28;11574;-76
2024/01/12 10:17:53;;;;;;;;;39.50;36.75;;;;;;;;5058345;28;12385;-78
2024/01/12 10:20:22;;;;;;;;;38.00;34.25;;;;;;;;5054715;28;11575;-77
2024/01/12 10:22:56;;;;;;;;;35.00;35.00;;;;;;;;5057802;28;11601;-75
2024/01/12 10:25:25;;;;;;;;;53.00;41.75;;;;;;;;5065560;28;11583;-75
2024/01/12 10:27:58;;;;;;;;;50.50;41.00;;;;;;;;5067210;28;11703;-78
2024/01/12 10:30:25;;;;;;;;;44.25;41.75;;;;;;;;5066789;28;11510;-78
2024/01/12 10:32:53;;;;;;;;;46.50;43.25;;;;;;;;5068571;28;11585;-78
2024/01/12 10:35:21;;;;;;;;;45.25;39.25;;;;;;;;5067729;28;12427;-78
2024/01/12 10:37:49;;;;;;;;;44.25;39.50;;;;;;;;5068774;28;11584;-79
2024/01/12 10:40:20;;;;;;;;;43.75;36.00;;;;;;;;5066320;28;11588;-77
2024/01/12 10:42:50;;;;;;;;;47.00;40.00;;;;;;;;5065330;28;11535;-77
2024/01/12 10:45:22;;;;;;;;;39.75;37.75;;;;;;;;5068219;28;11577;-78
2024/01/12 10:47:56;;;;;;;;;43.75;37.50;;;;;;;;5067787;28;11564;-75
2024/01/12 10:50:25;;;;;;;;;51.25;41.25;;;;;;;;5058412;28;11627;-78
2024/01/12 10:52:59;;;;;;;;;41.00;38.00;;;;;;;;5064793;28;11722;-78
2024/01/12 10:55:33;;;;;;;;;49.25;41.25;;;;;;;;5068909;28;11576;-78
2024/01/12 10:58:03;;;;;;;;;41.75;38.75;;;;;;;;5069657;28;11589;-77
2024/01/12 11:00:32;;;;;;;;;44.50;40.75;;;;;;;;5071397;28;11481;-76
2024/01/12 11:03:01;;;;;;;;;40.50;36.25;;;;;;;;5067477;28;11598;-77
2024/01/12 11:05:29;;;;;;;;;39.25;34.25;;;;;;;;5071353;28;11580;-79
2024/01/12 11:08:06;;;;;;;;;41.25;36.00;;;;;;;;5072753;28;11590;-77
2024/01/12 11:10:34;;;;;;;;;41.75;37.75;;;;;;;;5075190;28;11593;-78
2024/01/12 11:13:02;;;;;;;;;43.50;39.25;;;;;;;;5068297;28;11585;-78
2024/01/12 11:15:30;;;;;;;;;44.25;36.00;;;;;;;;5062536;28;12273;-76
2024/01/12 11:17:57;;;;;;;;;44.75;38.75;;;;;;;;5067990;28;11585;-78
2024/01/12 11:20:25;;;;;;;;;41.00;37.75;;;;;;;;5065078;28;11578;-77
2024/01/12 11:22:54;;;;;;;;;52.50;42.25;;;;;;;;5058947;28;11697;-78
2024/01/12 11:25:21;;;;;;;;;59.67;49.00;;;;;;;;5066963;28;11569;-79
2024/01/12 11:27:57;;;;;;;;;49.67;43.00;;;;;;;;5069582;28;11577;-77
2024/01/12 11:30:29;;;;;;;;;48.75;42.00;;;;;;;;5070355;28;12166;-79
2024/01/12 11:33:05;;;;;;;;;51.50;42.50;;;;;;;;5071300;28;11711;-81
2024/01/12 11:35:33;;;;;;;;;51.25;41.00;;;;;;;;5059309;28;12519;-77
2024/01/12 11:38:02;;;;;;;;;53.25;43.00;;;;;;;;5071048;28;11549;-79
2024/01/12 11:40:30;;;;;;;;;50.67;41.33;;;;;;;;5071761;28;12358;-79
2024/01/12 11:43:00;;;;;;;;;52.00;42.25;;;;;;;;5072004;28;11638;-83
2024/01/12 11:45:29;;;;;;;;;56.00;43.25;;;;;;;;5073339;28;12483;-80
2024/01/12 11:47:56;;;;;;;;;59.00;46.75;;;;;;;;5074384;28;11611;-82
2024/01/12 11:50:25;;;;;;;;;58.25;42.50;;;;;;;;5073491;28;11570;-80
2024/01/12 11:53:01;;;;;;;;;61.75;46.50;;;;;;;;5070563;28;11575;-78
2024/01/12 11:55:30;;;;;;;;;44.50;37.50;;;;;;;;5070392;28;11585;-77
2024/01/12 11:57:58;;;;;;;;;47.00;39.00;;;;;;;;5071919;28;11721;-84
2024/01/12 12:00:28;;;;;;;;;47.75;40.75;;;;;;;;5080847;28;11509;-77
2024/01/12 12:02:55;;;;;;;;;47.25;40.25;;;;;;;;5076337;28;11655;-77
2024/01/12 12:05:23;;;;;;;;;49.50;42.75;;;;;;;;5068917;28;11643;-76
2024/01/12 12:07:51;;;;;;;;;47.00;39.25;;;;;;;;5064295;28;11619;-78
2024/01/12 12:10:18;;;;;;;;;59.25;48.50;;;;;;;;5070859;28;11600;-77
2024/01/12 12:12:45;;;;;;;;;59.67;47.67;;;;;;;;5070799;28;11605;-82
2024/01/12 12:15:14;;;;;;;;;36.00;29.00;;;;;;;;5070659;28;11575;-85
2024/01/12 12:17:46;;;;;;;;;52.00;39.50;;;;;;;;5065711;28;12374;-80
2024/01/12 12:20:13;;;;;;;;;50.25;41.50;;;;;;;;5069575;28;11602;-79
2024/01/12 12:22:41;;;;;;;;;54.33;44.00;;;;;;;;5070653;28;11596;-81
2024/01/12 12:25:10;;;;;;;;;43.75;37.50;;;;;;;;5070556;28;11603;-81
2024/01/12 12:27:38;;;;;;;;;40.50;39.25;;;;;;;;5070884;28;11585;-81
2024/01/12 12:30:07;;;;;;;;;62.67;47.33;;;;;;;;5070662;28;11722;-81
2024/01/12 12:32:35;;;;;;;;;57.50;44.00;;;;;;;;5070738;28;11591;-80
2024/01/12 12:35:14;;;;;;;;;59.33;48.00;;;;;;;;5068282;28;11588;-81
2024/01/12 12:37:41;;;;;;;;;55.50;44.00;;;;;;;;5069576;28;11581;-81
2024/01/12 12:40:11;;;;;;;;;52.33;43.00;;;;;;;;5068542;28;11730;-80
2024/01/12 12:42:39;;;;;;;;;65.00;52.33;;;;;;;;5071300;28;11683;-81
2024/01/12 12:45:07;;;;;;;;;53.33;42.67;;;;;;;;5072336;28;8862;-82
2024/01/12 12:47:36;;;;;;;;;59.00;46.67;;;;;;;;5073976;28;11580;-81
2024/01/12 12:50:04;;;;;;;;;53.00;45.00;;;;;;;;5074588;28;11698;-82
2024/01/12 12:52:33;;;;;;;;;58.00;44.33;;;;;;;;5073951;28;11580;-82
2024/01/12 12:55:00;;;;;;;;;61.00;47.33;;;;;;;;5073994;28;11634;-80
2024/01/12 12:57:28;;;;;;;;;70.33;58.33;;;;;;;;5074089;28;8842;-80
2024/01/12 12:59:57;;;;;;;;;67.00;52.33;;;;;;;;5067239;28;8853;-81
2024/01/12 13:02:25;;;;;;;;;54.67;46.33;;;;;;;;5064604;28;8795;-78
2024/01/12 13:04:54;;;;;;;;;60.67;46.67;;;;;;;;5071622;28;11595;-81
2024/01/12 13:07:22;;;;;;;;;56.75;44.75;;;;;;;;5065851;28;12361;-77
2024/01/12 13:09:53;;;;;;;;;56.67;45.67;;;;;;;;5069997;28;11579;-82
2024/01/12 13:12:21;;;;;;;;;57.33;48.33;;;;;;;;5066502;28;11590;-79
2024/01/12 13:14:48;;;;;;;;;50.67;40.33;;;;;;;;5068814;28;12314;-81
2024/01/12 13:17:15;;;;;;;;;46.33;39.33;;;;;;;;5058280;28;11589;-78
2024/01/12 13:19:43;;;;;;;;;60.00;47.67;;;;;;;;5064828;28;11652;-79
2024/01/12 13:22:12;;;;;;;;;60.67;48.33;;;;;;;;5055416;28;8945;-80
2024/01/12 13:24:39;;;;;;;;;59.25;44.75;;;;;;;;5069175;28;11610;-81
2024/01/12 13:27:08;;;;;;;;;59.00;45.33;;;;;;;;5068665;28;11573;-82
2024/01/12 13:29:36;;;;;;;;;44.50;39.00;;;;;;;;5067924;28;11672;-81
2024/01/12 13:32:05;;;;;;;;;64.67;48.00;;;;;;;;5070097;28;11652;-82
2024/01/12 13:34:33;;;;;;;;;56.00;46.50;;;;;;;;5072106;28;11579;-79
2024/01/12 13:37:02;;;;;;;;;60.33;46.67;;;;;;;;5067961;28;11717;-81
2024/01/12 13:39:35;;;;;;;;;68.33;57.67;;;;;;;;5069023;28;11566;-78
2024/01/12 13:42:02;;;;;;;;;46.67;41.67;;;;;;;;5069489;28;8842;-83
2024/01/12 13:44:31;;;;;;;;;59.33;46.33;;;;;;;;5067103;28;11657;-82
2024/01/12 13:46:58;;;;;;;;;54.67;43.67;;;;;;;;5068497;28;11636;-81
2024/01/12 13:49:26;;;;;;;;;54.33;44.67;;;;;;;;5068534;28;12332;-81
2024/01/12 13:51:53;;;;;;;;;50.00;44.00;;;;;;;;5068949;28;11593;-79
2024/01/12 13:54:23;;;;;;;;;58.67;48.67;;;;;;;;5068897;28;12490;-80
2024/01/12 13:56:50;;;;;;;;;57.67;49.00;;;;;;;;5068949;28;11590;-80
2024/01/12 13:59:17;;;;;;;;;50.67;45.67;;;;;;;;5068522;28;11718;-81
2024/01/12 14:01:46;;;;;;;;;56.00;44.00;;;;;;;;5063156;28;11545;-82
2024/01/12 14:04:15;;;;;;;;;55.67;45.67;;;;;;;;5068629;28;12049;-80
2024/01/12 14:06:42;;;;;;;;;66.00;48.33;;;;;;;;5068413;28;12441;-80
2024/01/12 14:09:14;;;;;;;;;44.00;36.00;;;;;;;;5063408;28;11597;-79
2024/01/12 14:11:42;;;;;;;;;39.67;32.33;;;;;;;;5068721;28;11601;-81
2024/01/12 14:14:10;;;;;;;;;58.33;46.67;;;;;;;;5068398;28;11700;-79
2024/01/12 14:16:38;;;;;;;;;30.67;30.67;;;;;;;;5061139;28;8850;-81
2024/01/12 14:19:09;;;;;;;;;56.33;43.33;;;;;;;;5063799;28;12403;-82
2024/01/12 14:21:37;;;;;;;;;46.00;35.67;;;;;;;;5056871;28;11609;-82
2024/01/12 14:24:04;;;;;;;;;60.33;46.67;;;;;;;;5066724;28;11603;-82
2024/01/12 14:26:32;;;;;;;;;45.67;42.00;;;;;;;;5068216;28;11584;-81